Time;durP1;ratioP1;P1;durP2;ratioP2;P2;SDS_P1;SDS_P2;PMS_P1;PMS_P2;Temp;Humidity;BMP_temperature;BMP_pressure;BME280_temperature;BME280_humidity;BME280_pressure;Samples;Min_cycle;Max_cycle;Signal;HPM_P1;HPM_P2
2022/01/26 00:00:29;;;;;;;82.75;38.22;;;3.30;99.90;;;;;;5038526;28;20048;-81
2022/01/26 00:05:51;;;;;;;90.88;39.45;;;3.50;99.90;;;;;;5024305;28;20106;-81
2022/01/26 00:08:22;;;;;;;97.07;40.65;;;3.30;99.90;;;;;;5023715;28;20044;-81
2022/01/26 00:10:48;;;;;;;93.00;40.22;;;3.30;99.90;;;;;;5022394;28;20421;-81
2022/01/26 00:13:14;;;;;;;89.85;39.22;;;3.20;99.90;;;;;;5021806;28;20037;-81
2022/01/26 00:15:39;;;;;;;96.90;39.88;;;3.20;99.90;;;;;;5002013;28;20497;-81
2022/01/26 00:18:05;;;;;;;91.25;40.40;;;3.90;99.90;;;;;;5002889;28;20146;-81
2022/01/26 00:20:41;;;;;;;96.63;41.17;;;3.20;99.90;;;;;;4985289;28;20052;-81
2022/01/26 00:25:58;;;;;;;88.93;39.55;;;3.20;99.90;;;;;;5001012;28;20056;-81
2022/01/26 00:38:54;;;;;;;96.55;40.75;;;3.20;99.90;;;;;;5034549;28;20132;-81
2022/01/26 00:41:33;;;;;;;102.03;41.58;;;3.10;99.90;;;;;;5001463;28;20052;-81
2022/01/26 00:43:59;;;;;;;94.93;41.28;;;3.20;99.90;;;;;;4987389;28;20049;-81
2022/01/26 00:46:26;;;;;;;93.35;41.22;;;3.50;99.90;;;;;;5018243;28;20164;-81
2022/01/26 00:48:52;;;;;;;100.28;41.92;;;3.10;99.90;;;;;;5002044;28;20052;-81
2022/01/26 00:51:21;;;;;;;98.40;41.85;;;3.10;99.90;;;;;;5034382;28;20124;-81
2022/01/26 00:53:54;;;;;;;92.07;40.67;;;3.20;99.90;;;;;;5002241;28;20516;-81
2022/01/26 00:56:20;;;;;;;97.97;41.65;;;3.10;99.90;;;;;;4985493;28;20093;-81
2022/01/26 00:58:46;;;;;;;94.28;40.40;;;3.10;99.90;;;;;;5018047;28;20045;-81
2022/01/26 01:01:12;;;;;;;104.97;43.40;;;3.00;99.90;;;;;;5018257;28;20438;-81
2022/01/26 01:03:42;;;;;;;101.88;43.75;;;3.50;99.90;;;;;;4986563;28;20075;-81
2022/01/26 01:08:41;;;;;;;105.43;42.20;;;3.00;99.90;;;;;;5037622;28;20040;-81
2022/01/26 01:11:08;;;;;;;103.43;42.55;;;3.00;99.90;;;;;;5020213;28;20094;-81
2022/01/26 01:13:37;;;;;;;105.28;42.28;;;2.90;99.90;;;;;;5021300;28;20506;-81
2022/01/26 01:16:05;;;;;;;102.72;41.42;;;2.90;99.90;;;;;;5005138;28;20041;-81
2022/01/26 01:18:41;;;;;;;99.00;41.17;;;2.90;99.90;;;;;;5020919;28;20083;-81
2022/01/26 01:29:23;;;;;;;93.00;39.75;;;2.90;99.90;;;;;;5022897;28;20049;-81
2022/01/26 01:31:59;;;;;;;95.65;41.10;;;2.90;99.90;;;;;;5005470;28;20045;-81
2022/01/26 01:34:37;;;;;;;99.28;40.10;;;3.20;99.90;;;;;;5004819;28;20126;-81
2022/01/26 01:37:06;;;;;;;100.30;41.30;;;2.90;99.90;;;;;;5020077;28;20060;-81
2022/01/26 01:39:34;;;;;;;95.40;40.45;;;2.90;99.90;;;;;;5004399;28;20530;-81
2022/01/26 01:42:01;;;;;;;100.65;41.83;;;2.90;99.90;;;;;;5020198;28;20041;-81
2022/01/26 01:44:27;;;;;;;101.78;41.22;;;2.90;99.90;;;;;;5020130;28;20052;-81
2022/01/26 01:46:54;;;;;;;101.47;42.08;;;2.80;99.90;;;;;;5002872;28;20037;-81
2022/01/26 01:49:20;;;;;;;109.35;41.88;;;2.80;99.90;;;;;;5020039;28;20048;-81
2022/01/26 01:51:54;;;;;;;105.50;41.72;;;2.80;99.90;;;;;;5035747;28;20459;-81
2022/01/26 01:54:19;;;;;;;103.90;41.90;;;2.80;99.90;;;;;;5020743;28;20033;-81
2022/01/26 01:56:54;;;;;;;101.10;42.03;;;3.60;99.90;;;;;;5018819;28;20040;-81
2022/01/26 01:59:28;;;;;;;101.90;43.03;;;2.90;99.90;;;;;;5019181;28;20041;-81
2022/01/26 02:01:54;;;;;;;100.65;42.03;;;2.80;99.90;;;;;;5018105;28;20051;-81
2022/01/26 02:04:20;;;;;;;96.82;39.65;;;3.10;99.90;;;;;;5018830;28;20048;-81
2022/01/26 02:06:46;;;;;;;88.93;38.85;;;2.80;99.90;;;;;;5018669;28;20064;-81
2022/01/26 02:09:12;;;;;;;104.45;41.97;;;2.80;99.90;;;;;;5018903;28;20551;-81
2022/01/26 02:11:53;;;;;;;103.30;42.55;;;3.00;99.90;;;;;;5002568;28;20515;-81
2022/01/26 02:14:26;;;;;;;97.25;40.05;;;2.90;99.90;;;;;;5035654;28;20094;-81
2022/01/26 02:53:01;;;;;;;101.03;39.38;;;2.70;99.90;;;;;;5038918;28;20112;-81
2022/01/26 02:55:46;;;;;;;102.88;41.90;;;2.70;99.90;;;;;;5039004;28;20485;-81
2022/01/26 03:03:29;;;;;;;108.47;43.15;;;2.60;99.90;;;;;;5039015;28;20095;-81
2022/01/26 03:06:00;;;;;;;107.40;41.47;;;2.90;99.90;;;;;;5038798;28;20060;-81
2022/01/26 03:08:33;;;;;;;103.97;41.50;;;2.60;99.90;;;;;;5039193;28;20052;-81
2022/01/26 03:11:05;;;;;;;106.03;41.78;;;2.70;99.90;;;;;;5038754;28;20041;-81
2022/01/26 03:13:33;;;;;;;;;;;2.60;99.90;;;;;;5022692;28;20037;-81
2022/01/26 03:16:06;;;;;;;100.32;39.83;;;2.60;99.90;;;;;;5037850;28;20280;-81
2022/01/26 03:21:12;;;;;;;105.57;42.08;;;2.60;99.90;;;;;;5023467;28;20045;-81
2022/01/26 03:35:14;;;;;;;115.72;42.88;;;2.50;99.90;;;;;;4994700;28;20198;-81
2022/01/26 03:37:40;;;;;;;108.00;41.45;;;2.50;99.90;;;;;;4978470;28;20042;-81
2022/01/26 03:40:13;;;;;;;108.78;42.80;;;2.50;99.90;;;;;;5002858;28;20103;-81
2022/01/26 03:42:39;;;;;;;100.20;40.85;;;2.50;99.90;;;;;;5022483;28;20045;-81
2022/01/26 03:45:05;;;;;;;115.00;44.58;;;3.10;99.90;;;;;;5037801;28;20513;-81
2022/01/26 03:47:31;;;;;;;102.82;41.15;;;2.50;99.90;;;;;;5020782;28;20037;-81
2022/01/26 03:49:56;;;;;;;108.53;42.05;;;2.50;99.90;;;;;;5021489;28;20037;-81
2022/01/26 03:52:22;;;;;;;101.95;39.30;;;3.20;99.90;;;;;;5005204;28;20508;-81
2022/01/26 03:54:48;;;;;;;103.32;40.20;;;2.50;99.90;;;;;;5005121;28;20476;-81
2022/01/26 03:57:13;;;;;;;105.55;40.13;;;2.50;99.90;;;;;;5036391;28;20048;-81
2022/01/26 03:59:39;;;;;;;101.00;39.42;;;3.30;99.90;;;;;;5004894;28;20048;-81
2022/01/26 04:02:05;;;;;;;105.30;38.90;;;2.50;99.90;;;;;;5036168;28;20041;-81
2022/01/26 04:04:36;;;;;;;104.63;39.38;;;2.90;99.90;;;;;;5019428;28;20048;-81
2022/01/26 04:07:02;;;;;;;100.15;40.80;;;2.50;99.90;;;;;;5032305;28;20053;-81
2022/01/26 04:09:28;;;;;;;97.43;39.17;;;2.50;99.90;;;;;;5032513;28;20037;-81
2022/01/26 04:11:54;;;;;;;101.93;39.05;;;2.40;99.90;;;;;;5030454;28;20136;-81
2022/01/26 04:14:24;;;;;;;92.65;36.10;;;2.80;99.90;;;;;;5014265;28;20131;-81
2022/01/26 04:16:50;;;;;;;94.47;39.83;;;2.70;99.90;;;;;;5011796;28;20049;-81
2022/01/26 04:19:17;;;;;;;102.90;40.33;;;2.50;99.90;;;;;;5030672;28;20146;-81
2022/01/26 04:21:59;;;;;;;105.85;39.40;;;2.50;99.90;;;;;;5033234;28;20401;-81
2022/01/26 04:24:37;;;;;;;;;;;2.60;99.90;;;;;;5034016;28;20405;-81
2022/01/26 04:27:13;;;;;;;103.28;38.58;;;2.80;99.90;;;;;;5027895;28;20288;-81
2022/01/26 04:29:39;;;;;;;106.72;39.42;;;2.40;99.90;;;;;;5016746;28;20051;-81
2022/01/26 04:32:06;;;;;;;109.88;38.92;;;2.40;99.90;;;;;;5032044;28;20034;-82
2022/01/26 04:34:33;;;;;;;106.38;39.25;;;2.40;99.90;;;;;;5033000;28;20095;-82
2022/01/26 04:39:52;;;;;;;108.82;39.22;;;2.30;99.90;;;;;;5009356;28;20073;-82
2022/01/26 04:42:27;;;;;;;110.32;41.40;;;2.30;99.90;;;;;;5016657;28;20103;-81
2022/01/26 04:45:01;;;;;;;104.30;39.63;;;2.30;99.90;;;;;;5013894;28;20041;-81
2022/01/26 04:47:27;;;;;;;103.95;38.50;;;2.70;99.90;;;;;;5015877;28;20045;-81
2022/01/26 04:49:52;;;;;;;101.93;38.42;;;2.30;99.90;;;;;;5016236;28;20041;-81
2022/01/26 04:52:18;;;;;;;103.68;38.90;;;2.30;99.90;;;;;;5018830;28;20037;-81
2022/01/26 04:54:44;;;;;;;104.63;38.25;;;2.30;99.90;;;;;;5016517;28;20037;-81
2022/01/26 04:57:10;;;;;;;103.85;36.15;;;2.30;99.90;;;;;;4997228;28;20091;-81
2022/01/26 04:59:35;;;;;;;94.18;35.67;;;2.30;99.90;;;;;;5016383;28;20108;-81
2022/01/26 05:02:01;;;;;;;104.25;37.53;;;2.30;99.90;;;;;;5012832;28;20084;-81
2022/01/26 05:04:27;;;;;;;93.72;35.72;;;2.30;99.90;;;;;;5027249;28;20426;-81
2022/01/26 05:06:53;;;;;;;101.88;36.90;;;2.30;99.90;;;;;;5015824;28;20168;-81
2022/01/26 05:09:20;;;;;;;99.75;37.38;;;2.30;99.90;;;;;;5032873;28;20095;-81
2022/01/26 05:11:49;;;;;;;99.25;37.08;;;2.30;99.90;;;;;;5015820;28;20120;-81
2022/01/26 05:14:14;;;;;;;95.15;35.65;;;2.30;99.90;;;;;;4999998;28;20116;-81
2022/01/26 05:16:40;;;;;;;89.15;34.70;;;2.30;99.90;;;;;;5047034;28;20116;-81
2022/01/26 05:19:06;;;;;;;98.47;35.83;;;2.40;99.90;;;;;;5006459;28;20481;-81
2022/01/26 05:21:33;;;;;;;93.82;35.45;;;2.20;99.90;;;;;;5032240;28;20041;-81
2022/01/26 05:23:59;;;;;;;101.65;36.20;;;2.30;99.90;;;;;;5016739;28;20489;-81
2022/01/26 05:26:25;;;;;;;103.45;35.97;;;2.20;99.90;;;;;;5049403;28;20405;-81
2022/01/26 05:28:51;;;;;;;94.95;34.58;;;2.30;99.90;;;;;;5015305;28;20042;-81
2022/01/26 05:31:17;;;;;;;98.78;35.03;;;3.10;99.90;;;;;;5011922;28;20042;-81
2022/01/26 05:33:42;;;;;;;92.15;34.30;;;2.20;99.90;;;;;;4996497;28;20088;-81
2022/01/26 05:36:08;;;;;;;95.00;34.30;;;2.20;99.90;;;;;;4996392;28;20084;-81
2022/01/26 05:38:34;;;;;;;93.40;35.05;;;2.70;99.90;;;;;;5030295;28;20076;-81
2022/01/26 05:41:02;;;;;;;100.90;35.38;;;2.10;99.90;;;;;;5016089;28;20037;-81
2022/01/26 05:43:29;;;;;;;99.70;36.03;;;2.20;99.90;;;;;;4984364;28;20030;-81
2022/01/26 05:45:59;;;;;;;94.07;33.97;;;2.20;99.90;;;;;;5014922;28;20045;-81
2022/01/26 05:48:24;;;;;;;102.53;33.88;;;2.20;99.90;;;;;;5016033;28;20034;-81
2022/01/26 05:50:56;;;;;;;93.00;34.60;;;2.10;99.90;;;;;;5015851;28;20602;-81
2022/01/26 05:53:22;;;;;;;97.55;34.38;;;2.10;99.90;;;;;;5000644;28;20090;-81
2022/01/26 05:55:53;;;;;;;102.25;35.03;;;2.70;99.90;;;;;;5016020;28;20041;-81
2022/01/26 05:58:19;;;;;;;74.63;25.80;;;2.10;99.90;;;;;;5015919;28;20086;-81
2022/01/26 06:00:45;;;;;;;93.80;34.28;;;2.10;99.90;;;;;;5015130;28;20045;-81
2022/01/26 06:03:11;;;;;;;102.50;34.65;;;2.20;99.90;;;;;;5015977;28;20037;-81
2022/01/26 06:05:37;;;;;;;91.65;33.67;;;2.20;99.90;;;;;;5017747;28;20047;-81
2022/01/26 06:08:03;;;;;;;89.25;32.70;;;2.40;99.90;;;;;;5018803;28;20055;-81
2022/01/26 06:10:28;;;;;;;90.03;32.80;;;2.20;99.90;;;;;;5002688;28;20037;-81
2022/01/26 06:12:54;;;;;;;95.50;34.45;;;2.30;99.90;;;;;;5002861;28;20033;-81
2022/01/26 06:15:20;;;;;;;88.80;32.78;;;2.20;99.90;;;;;;5001881;28;20037;-81
2022/01/26 06:17:46;;;;;;;89.72;32.10;;;2.20;99.90;;;;;;5019419;28;20037;-81
2022/01/26 06:20:12;;;;;;;89.68;32.25;;;2.10;99.90;;;;;;5018182;28;20123;-81
2022/01/26 06:22:38;;;;;;;90.95;33.55;;;2.10;99.90;;;;;;5019006;28;20079;-81
2022/01/26 06:25:07;;;;;;;95.30;32.78;;;2.10;99.90;;;;;;5003132;28;20045;-81
2022/01/26 06:27:35;;;;;;;87.22;33.25;;;2.10;99.90;;;;;;5034338;28;20045;-81
2022/01/26 06:30:02;;;;;;;86.47;31.65;;;2.10;99.90;;;;;;5018934;28;20091;-81
2022/01/26 06:32:29;;;;;;;87.45;31.65;;;2.10;99.90;;;;;;5018342;28;20037;-81
2022/01/26 06:34:55;;;;;;;88.70;32.00;;;2.20;99.90;;;;;;5018980;28;20041;-81
2022/01/26 06:37:21;;;;;;;89.45;32.95;;;2.10;99.90;;;;;;5018361;28;20041;-81
2022/01/26 06:39:47;;;;;;;86.22;31.63;;;2.10;99.90;;;;;;5018775;28;20087;-81
2022/01/26 06:42:16;;;;;;;84.43;31.27;;;2.20;99.90;;;;;;5030948;28;20069;-81
2022/01/26 06:45:06;;;;;;;85.65;30.65;;;2.20;99.90;;;;;;5015714;28;20034;-81
2022/01/26 06:50:18;;;;;;;81.72;30.85;;;2.10;99.90;;;;;;4987761;28;20128;-81
2022/01/26 06:52:46;;;;;;;81.22;31.67;;;2.80;99.90;;;;;;5029622;28;20117;-81
2022/01/26 06:55:12;;;;;;;74.65;30.17;;;2.20;99.90;;;;;;4967490;28;20482;-81
2022/01/26 06:57:39;;;;;;;77.68;29.27;;;2.80;99.90;;;;;;5032717;28;20041;-81
2022/01/26 07:00:05;;;;;;;75.82;28.75;;;2.20;99.90;;;;;;5002346;28;20045;-81
2022/01/26 07:02:31;;;;;;;83.35;31.27;;;2.20;99.90;;;;;;5017648;28;20044;-81
2022/01/26 07:04:57;;;;;;;76.45;28.45;;;2.20;99.90;;;;;;5002009;28;20045;-81
2022/01/26 07:07:23;;;;;;;75.50;30.10;;;2.20;99.90;;;;;;5018216;28;20099;-81
2022/01/26 07:09:49;;;;;;;78.00;29.75;;;2.20;99.90;;;;;;5018055;28;20045;-81
2022/01/26 07:12:15;;;;;;;78.50;29.55;;;2.20;99.90;;;;;;5018668;28;20033;-81
2022/01/26 07:22:47;;;;;;;76.45;28.77;;;2.30;99.90;;;;;;5000997;28;20045;-81
2022/01/26 07:25:13;;;;;;;72.55;28.85;;;2.20;99.90;;;;;;4982702;28;20038;-81
2022/01/26 07:27:40;;;;;;;68.95;26.50;;;2.30;99.90;;;;;;5033475;28;20408;-81
2022/01/26 07:30:07;;;;;;;74.93;28.55;;;2.30;99.90;;;;;;5019298;28;20040;-81
2022/01/26 07:32:35;;;;;;;72.38;28.65;;;2.30;99.90;;;;;;5011071;28;20447;-81
2022/01/26 07:35:01;;;;;;;64.95;26.77;;;2.80;99.90;;;;;;5026038;28;20042;-81
2022/01/26 07:37:27;;;;;;;67.13;25.63;;;3.00;99.90;;;;;;5017205;28;20052;-81
2022/01/26 07:40:04;;;;;;;68.88;28.48;;;2.30;99.90;;;;;;5018414;28;20129;-81
2022/01/26 07:42:31;;;;;;;71.20;27.13;;;2.50;99.90;;;;;;5029054;28;20504;-81
2022/01/26 07:44:56;;;;;;;65.75;26.38;;;2.80;99.90;;;;;;5009773;28;20037;-81
2022/01/26 07:47:23;;;;;;;70.43;28.23;;;2.30;99.90;;;;;;5019487;28;20550;-81
2022/01/26 07:49:52;;;;;;;67.70;28.42;;;2.50;99.90;;;;;;5034097;28;20044;-81
2022/01/26 07:52:18;;;;;;;70.05;28.85;;;2.30;99.90;;;;;;5034651;28;20040;-81
2022/01/26 07:54:45;;;;;;;72.85;29.17;;;2.30;99.90;;;;;;5001236;28;20036;-81
2022/01/26 07:57:11;;;;;;;72.18;28.95;;;2.30;99.90;;;;;;5014020;28;20044;-81
2022/01/26 07:59:37;;;;;;;74.10;29.45;;;2.30;99.90;;;;;;5017106;28;20045;-81
2022/01/26 08:02:03;;;;;;;76.68;30.58;;;3.00;99.90;;;;;;5004096;28;20480;-81
2022/01/26 08:04:29;;;;;;;70.03;29.10;;;2.30;99.90;;;;;;4994386;28;20378;-81
2022/01/26 08:06:54;;;;;;;72.35;30.80;;;2.40;99.90;;;;;;5012898;28;20140;-81
2022/01/26 08:09:20;;;;;;;70.97;30.52;;;2.40;99.90;;;;;;5012861;28;20119;-81
2022/01/26 08:11:46;;;;;;;78.50;33.28;;;2.30;99.90;;;;;;5017575;28;20049;-81
2022/01/26 08:14:12;;;;;;;79.75;33.45;;;2.40;99.90;;;;;;5016370;28;20037;-81
2022/01/26 08:16:38;;;;;;;79.78;31.73;;;2.40;99.90;;;;;;5018321;28;20037;-81
2022/01/26 08:19:04;;;;;;;77.95;32.10;;;2.40;99.90;;;;;;5016778;28;20037;-81
2022/01/26 08:21:30;;;;;;;79.03;32.90;;;2.40;99.90;;;;;;5016073;28;20099;-81
2022/01/26 08:24:02;;;;;;;81.28;33.70;;;2.70;99.90;;;;;;5012428;28;20045;-81
2022/01/26 08:26:38;;;;;;;82.40;33.60;;;2.50;99.90;;;;;;5014814;28;20148;-82
2022/01/26 08:29:10;;;;;;;76.40;33.13;;;2.50;99.90;;;;;;5034904;28;20103;-82
2022/01/26 08:31:36;;;;;;;84.40;32.40;;;2.50;99.90;;;;;;5002597;28;20548;-82
2022/01/26 08:34:02;;;;;;;79.10;34.05;;;2.60;99.90;;;;;;5001503;28;20116;-82
2022/01/26 08:36:27;;;;;;;88.25;36.58;;;2.50;99.90;;;;;;5006122;28;20037;-82
2022/01/26 08:38:53;;;;;;;90.47;35.50;;;2.90;99.90;;;;;;5020178;28;20037;-82
2022/01/26 08:41:19;;;;;;;85.68;36.55;;;2.60;99.90;;;;;;5012196;28;20045;-82
2022/01/26 08:43:45;;;;;;;93.13;40.17;;;2.50;99.90;;;;;;5015894;28;20568;-81
2022/01/26 08:46:11;;;;;;;95.72;39.88;;;2.50;99.90;;;;;;4998593;28;20465;-82
2022/01/26 08:48:36;;;;;;;96.50;40.35;;;2.50;99.90;;;;;;5032821;28;20132;-82
2022/01/26 08:51:02;;;;;;;99.10;43.13;;;2.60;99.90;;;;;;4997530;28;20084;-82
2022/01/26 08:53:28;;;;;;;105.15;43.03;;;2.60;99.90;;;;;;5021885;28;20052;-81
2022/01/26 08:55:54;;;;;;;104.28;43.67;;;2.60;99.90;;;;;;5015488;28;20034;-81
2022/01/26 08:58:20;;;;;;;108.32;45.40;;;2.60;99.90;;;;;;5009990;28;20037;-81
2022/01/26 09:00:45;;;;;;;108.00;44.97;;;2.70;99.90;;;;;;5012157;28;20040;-81
2022/01/26 09:03:11;;;;;;;105.57;45.92;;;2.70;99.90;;;;;;5018045;28;20042;-81
2022/01/26 09:05:37;;;;;;;109.78;47.58;;;2.60;99.90;;;;;;5014859;28;20562;-81
2022/01/26 09:08:03;;;;;;;111.53;48.22;;;2.60;99.90;;;;;;5030390;28;20063;-81
2022/01/26 09:10:33;;;;;;;110.53;47.33;;;2.70;99.90;;;;;;5030831;28;20112;-81
2022/01/26 09:12:59;;;;;;;110.20;47.65;;;2.70;99.90;;;;;;5015123;28;20033;-82
2022/01/26 09:15:29;;;;;;;114.75;49.47;;;2.70;99.90;;;;;;5015638;28;20033;-82
2022/01/26 09:17:58;;;;;;;121.18;50.63;;;2.70;99.90;;;;;;5039732;28;20591;-82
2022/01/26 09:20:23;;;;;;;116.05;49.08;;;2.80;99.90;;;;;;5017511;28;20049;-82
2022/01/26 09:22:49;;;;;;;114.03;49.95;;;2.80;99.90;;;;;;5017879;28;20040;-81
2022/01/26 09:25:15;;;;;;;117.25;49.55;;;2.80;99.90;;;;;;5041245;28;20060;-82
2022/01/26 09:27:41;;;;;;;118.53;51.35;;;2.80;99.90;;;;;;5029341;28;20052;-82
2022/01/26 09:30:08;;;;;;;120.05;51.95;;;2.80;99.90;;;;;;5012055;28;20090;-82
2022/01/26 09:32:34;;;;;;;118.53;50.42;;;2.80;99.90;;;;;;5014542;28;20053;-82
2022/01/26 09:35:00;;;;;;;121.70;52.03;;;2.80;99.90;;;;;;5012649;28;20095;-82
2022/01/26 09:37:26;;;;;;;124.65;53.15;;;2.80;99.90;;;;;;5018202;28;20060;-81
2022/01/26 09:39:51;;;;;;;125.57;54.55;;;2.90;99.90;;;;;;5015931;28;20037;-81
2022/01/26 09:42:17;;;;;;;119.30;52.28;;;2.80;99.90;;;;;;4997424;28;20045;-81
2022/01/26 09:44:44;;;;;;;131.73;55.78;;;3.20;99.90;;;;;;5034971;28;20068;-81
2022/01/26 09:47:10;;;;;;;126.30;53.53;;;2.90;99.90;;;;;;5032120;28;20086;-81
2022/01/26 09:49:36;;;;;;;127.82;54.10;;;2.90;99.90;;;;;;5000012;28;20109;-82
2022/01/26 09:52:15;;;;;;;136.18;57.00;;;2.90;99.90;;;;;;5018410;28;20553;-81
2022/01/26 09:54:43;;;;;;;127.38;54.47;;;3.20;99.90;;;;;;5010285;28;20091;-81
2022/01/26 09:57:09;;;;;;;131.73;56.00;;;2.90;99.90;;;;;;5000161;28;20036;-81
2022/01/26 09:59:36;;;;;;;129.85;55.55;;;3.00;99.90;;;;;;5000062;28;20102;-81
2022/01/26 10:02:03;;;;;;;137.98;55.97;;;3.30;99.90;;;;;;4998578;28;20075;-81
2022/01/26 10:04:34;;;;;;;140.77;58.65;;;3.00;99.90;;;;;;5015846;28;20037;-81
2022/01/26 10:09:48;;;;;;;142.55;59.67;;;3.00;99.90;;;;;;5031080;28;20072;-81
2022/01/26 10:17:47;;;;;;;138.55;58.65;;;3.10;99.90;;;;;;5014505;28;20123;-81
2022/01/26 10:20:15;;;;;;;140.10;59.40;;;3.10;99.90;;;;;;5032035;28;20032;-81
2022/01/26 10:22:42;;;;;;;144.10;60.03;;;3.10;99.90;;;;;;5028549;28;20048;-81
2022/01/26 10:25:17;;;;;;;140.90;60.03;;;3.20;99.90;;;;;;5015792;28;20086;-82
2022/01/26 10:27:50;;;;;;;140.73;57.15;;;3.20;99.90;;;;;;5048398;28;20404;-81
2022/01/26 10:30:18;;;;;;;142.95;60.13;;;3.20;99.90;;;;;;5010138;28;20091;-81
2022/01/26 10:32:45;;;;;;;140.32;60.15;;;3.30;99.90;;;;;;5031050;28;20112;-81
2022/01/26 10:35:13;;;;;;;140.00;58.17;;;3.30;99.90;;;;;;5015404;28;20075;-81
2022/01/26 10:37:47;;;;;;;142.82;62.13;;;3.30;99.90;;;;;;4991412;28;20041;-81
2022/01/26 10:40:18;;;;;;;129.40;56.28;;;3.30;99.90;;;;;;5029331;28;20108;-81
2022/01/26 10:43:06;;;;;;;133.75;58.05;;;3.40;99.90;;;;;;5032934;28;20529;-81
2022/01/26 10:45:55;;;;;;;135.90;60.08;;;3.40;99.90;;;;;;5030445;28;20037;-81
2022/01/26 10:48:37;;;;;;;134.05;59.75;;;3.50;99.90;;;;;;5010169;28;20036;-81
2022/01/26 10:53:50;;;;;;;129.00;56.92;;;3.50;99.90;;;;;;5023151;28;20045;-81
2022/01/26 10:56:16;;;;;;;126.07;57.70;;;3.60;99.90;;;;;;5013187;28;20041;-81
2022/01/26 10:58:42;;;;;;;129.70;57.38;;;3.60;99.90;;;;;;5016650;28;20039;-82
2022/01/26 11:01:08;;;;;;;126.63;56.85;;;3.70;99.90;;;;;;5018735;28;20040;-82
2022/01/26 11:03:34;;;;;;;121.82;56.08;;;3.70;99.90;;;;;;5017982;28;20522;-82
2022/01/26 11:06:03;;;;;;;125.60;57.30;;;3.70;99.90;;;;;;5016639;28;20455;-82
2022/01/26 11:08:30;;;;;;;127.90;57.35;;;3.70;99.90;;;;;;5036875;28;20516;-82
2022/01/26 11:10:56;;;;;;;125.28;55.08;;;3.70;99.90;;;;;;5036290;28;20481;-81
2022/01/26 11:13:29;;;;;;;130.50;57.58;;;4.20;99.90;;;;;;5015953;28;20087;-81
2022/01/26 11:16:15;;;;;;;130.73;57.33;;;3.80;99.90;;;;;;5020308;28;20078;-82
2022/01/26 11:18:51;;;;;;;124.60;55.80;;;3.80;99.90;;;;;;5017684;28;20468;-81
2022/01/26 11:21:26;;;;;;;126.20;53.10;;;3.80;99.90;;;;;;5033010;28;20132;-81
2022/01/26 11:24:05;;;;;;;122.95;55.35;;;3.80;99.90;;;;;;5019413;28;20033;-81
2022/01/26 11:26:30;;;;;;;118.63;54.72;;;4.00;99.90;;;;;;5004434;28;20490;-81
2022/01/26 11:28:57;;;;;;;121.45;56.00;;;3.90;99.90;;;;;;5017502;28;20116;-81
2022/01/26 11:31:24;;;;;;;125.50;56.45;;;4.50;99.90;;;;;;5016523;28;20041;-81
2022/01/26 11:33:50;;;;;;;117.93;53.17;;;3.90;99.90;;;;;;5019293;28;20040;-82
2022/01/26 11:36:18;;;;;;;123.65;55.10;;;4.20;99.90;;;;;;5036155;28;20044;-81
2022/01/26 11:47:03;;;;;;;115.70;53.90;;;3.90;99.90;;;;;;5050553;28;20037;-81
2022/01/26 11:49:36;;;;;;;109.22;51.40;;;3.90;99.90;;;;;;5034233;28;20045;-81
2022/01/26 11:52:03;;;;;;;115.43;51.67;;;3.90;99.90;;;;;;5033560;28;20098;-81
2022/01/26 11:54:42;;;;;;;113.20;51.47;;;3.90;99.90;;;;;;5016594;28;20032;-81
2022/01/26 11:57:15;;;;;;;106.32;48.85;;;3.90;99.90;;;;;;5035635;28;20101;-81
2022/01/26 11:59:50;;;;;;;104.47;47.92;;;4.00;99.90;;;;;;5034430;28;20056;-81
2022/01/26 12:02:38;;;;;;;101.65;48.03;;;4.00;99.90;;;;;;5025968;28;20045;-82
2022/01/26 12:05:09;;;;;;;100.28;47.78;;;3.90;99.90;;;;;;5014073;28;20056;-81
2022/01/26 12:07:45;;;;;;;104.85;48.42;;;4.00;99.90;;;;;;5033084;28;20045;-81
2022/01/26 12:10:18;;;;;;;107.88;50.13;;;4.00;99.90;;;;;;5016488;28;20049;-81
2022/01/26 12:12:44;;;;;;;109.43;49.75;;;4.00;99.90;;;;;;5019178;28;20037;-81
2022/01/26 12:15:16;;;;;;;106.35;49.15;;;4.00;99.90;;;;;;5031895;28;20432;-81
2022/01/26 12:42:37;;;;;;;103.15;47.00;;;4.10;99.90;;;;;;5028729;28;20075;-81
2022/01/26 12:45:04;;;;;;;97.93;43.63;;;4.20;99.90;;;;;;5034127;28;20075;-81
2022/01/26 12:47:31;;;;;;;97.07;46.10;;;4.20;99.90;;;;;;4999991;28;20037;-81
2022/01/26 12:49:58;;;;;;;99.65;45.92;;;4.30;99.90;;;;;;5048972;28;20504;-81
2022/01/26 12:52:24;;;;;;;95.18;43.67;;;4.20;99.90;;;;;;5031984;28;20505;-81
2022/01/26 12:54:50;;;;;;;96.50;45.45;;;4.20;99.90;;;;;;5014621;28;20489;-81
2022/01/26 12:57:17;;;;;;;98.82;45.53;;;4.20;99.90;;;;;;5031271;28;20097;-81
2022/01/26 12:59:43;;;;;;;97.47;45.47;;;4.20;99.90;;;;;;5031861;28;20049;-81
2022/01/26 13:02:10;;;;;;;107.93;46.90;;;4.30;99.90;;;;;;5002122;28;20126;-81
2022/01/26 13:04:36;;;;;;;90.30;43.30;;;4.30;99.90;;;;;;5016929;28;20045;-81
2022/01/26 13:07:03;;;;;;;92.00;43.67;;;4.20;99.90;;;;;;5014320;28;20053;-81
2022/01/26 13:09:38;;;;;;;84.60;40.28;;;4.30;99.90;;;;;;5033353;28;20040;-81
2022/01/26 13:12:04;;;;;;;85.88;39.97;;;4.50;99.90;;;;;;5013866;28;20064;-81
2022/01/26 13:14:42;;;;;;;82.53;40.67;;;4.40;99.90;;;;;;5031031;28;20508;-81
2022/01/26 13:17:21;;;;;;;82.50;39.47;;;4.40;99.90;;;;;;5014822;28;20045;-81
2022/01/26 13:44:35;;;;;;;78.88;36.53;;;4.40;99.90;;;;;;5011491;28;20059;-81
2022/01/26 13:49:40;;;;;;;79.07;38.50;;;4.50;99.90;;;;;;5014451;28;20068;-81
2022/01/26 13:52:20;;;;;;;86.95;40.78;;;4.50;99.90;;;;;;5013023;28;20037;-81
2022/01/26 13:55:15;;;;;;;82.28;39.65;;;4.50;99.90;;;;;;5014154;28;20116;-81
2022/01/26 13:57:49;;;;;;;85.55;41.10;;;4.50;99.90;;;;;;5030560;28;20501;-81
2022/01/26 14:00:18;;;;;;;91.57;41.10;;;4.50;99.90;;;;;;5020882;28;20063;-81
2022/01/26 14:02:44;;;;;;;83.47;38.47;;;4.40;99.90;;;;;;5032658;28;20037;-82
2022/01/26 14:05:12;;;;;;;88.65;42.33;;;4.50;99.90;;;;;;5025677;28;20045;-82
2022/01/26 14:07:38;;;;;;;88.22;40.30;;;4.50;99.90;;;;;;5017522;28;20056;-82
2022/01/26 14:10:04;;;;;;;89.15;42.22;;;4.50;99.90;;;;;;5016608;28;20118;-82
2022/01/26 14:12:35;;;;;;;98.57;44.13;;;4.50;99.90;;;;;;5013618;28;20024;-82
2022/01/26 14:15:06;;;;;;;87.95;42.38;;;4.50;99.90;;;;;;5031997;28;20569;-82
2022/01/26 14:17:57;;;;;;;86.70;41.17;;;4.50;99.90;;;;;;5013326;28;20033;-82
2022/01/26 14:25:29;;;;;;;;;;;4.50;99.90;;;;;;5017203;28;20047;-82
2022/01/26 14:28:00;;;;;;;78.95;39.40;;;4.50;99.90;;;;;;4999839;28;19947;-82
2022/01/26 14:30:31;;;;;;;84.05;39.03;;;4.50;99.90;;;;;;5015967;28;20090;-81
2022/01/26 14:50:54;;;;;;;84.10;39.95;;;4.50;99.90;;;;;;5029307;28;20412;-81
2022/01/26 14:53:07;;;;;;;91.10;42.92;;;4.80;99.90;;;;;;5033031;28;20537;-81
2022/01/26 14:55:40;;;;;;;87.40;43.75;;;4.50;99.90;;;;;;5045789;28;20045;-81
2022/01/26 15:01:14;;;;;;;83.80;41.78;;;4.50;99.90;;;;;;5016589;28;20046;-81
2022/01/26 15:29:58;;;;;;;87.25;40.28;;;4.50;99.90;;;;;;5031838;28;20059;-81
2022/01/26 15:30:54;;;;;;;86.60;41.63;;;4.50;99.90;;;;;;5015499;28;20073;-82
2022/01/26 15:33:34;;;;;;;86.15;40.90;;;4.50;99.90;;;;;;5020192;28;20047;-81
2022/01/26 15:52:15;;;;;;;83.03;41.03;;;4.60;99.90;;;;;;5016760;28;20044;-81
2022/01/26 15:57:58;;;;;;;78.75;38.70;;;4.60;99.90;;;;;;5001488;28;20041;-81
2022/01/26 16:06:08;;;;;;;76.25;37.38;;;4.60;99.90;;;;;;5032075;28;20053;-81
2022/01/26 16:26:17;;;;;;;89.15;40.65;;;4.60;99.90;;;;;;5037636;28;20080;-81
2022/01/26 16:36:04;;;;;;;82.68;37.72;;;4.90;99.90;;;;;;5029733;28;20175;-81
2022/01/26 16:38:18;;;;;;;80.20;38.13;;;4.60;99.90;;;;;;5028340;28;20052;-81
2022/01/26 18:15:51;;;;;;;83.35;41.80;;;4.70;99.90;;;;;;5019756;28;20042;-81
2022/01/26 18:50:34;;;;;;;79.57;39.47;;;4.80;99.90;;;;;;5032664;28;20436;-81
2022/01/26 18:53:00;;;;;;;76.97;39.05;;;4.90;99.90;;;;;;5033321;28;20043;-81
2022/01/26 18:55:26;;;;;;;72.55;37.45;;;4.90;99.90;;;;;;5015371;28;20116;-81
2022/01/26 18:57:51;;;;;;;73.57;40.08;;;4.90;99.90;;;;;;5021681;28;20117;-81
2022/01/26 19:00:17;;;;;;;68.68;36.38;;;4.90;99.90;;;;;;5031081;28;20453;-81
2022/01/26 19:02:43;;;;;;;75.30;37.95;;;4.90;99.90;;;;;;4999377;28;20033;-81
2022/01/26 19:05:11;;;;;;;69.72;35.83;;;4.90;99.90;;;;;;5032758;28;20041;-81
2022/01/26 19:07:37;;;;;;;75.05;37.80;;;4.90;99.90;;;;;;5032985;28;20053;-82
2022/01/26 19:10:04;;;;;;;68.70;35.65;;;4.90;99.90;;;;;;5032917;28;20064;-82
2022/01/26 19:12:33;;;;;;;71.47;38.80;;;5.00;99.90;;;;;;5031691;28;20495;-82
2022/01/26 19:15:03;;;;;;;69.82;38.17;;;5.00;99.90;;;;;;5016391;28;20488;-82